sensor_id;sensor_type;location;lat;lon;timestamp;pressure;altitude;pressure_sealevel;temperature;humidity
77482;BME280;66582;43.004;-75.010;2023-04-16T00:02:09;99516.00;;;21.03;52.62
77482;BME280;66582;43.004;-75.010;2023-04-16T00:04:35;99510.62;;;21.31;52.36
77482;BME280;66582;43.004;-75.010;2023-04-16T00:07:00;99518.87;;;21.30;53.67
77482;BME280;66582;43.004;-75.010;2023-04-16T00:09:25;99512.62;;;21.57;51.32
77482;BME280;66582;43.004;-75.010;2023-04-16T00:11:51;99513.46;;;21.90;49.21
77482;BME280;66582;43.004;-75.010;2023-04-16T00:14:15;99508.91;;;22.42;47.93
77482;BME280;66582;43.004;-75.010;2023-04-16T00:16:41;99513.76;;;23.39;45.91
77482;BME280;66582;43.004;-75.010;2023-04-16T00:19:06;99518.06;;;23.43;47.68
77482;BME280;66582;43.004;-75.010;2023-04-16T00:21:31;99526.08;;;21.82;53.91
77482;BME280;66582;43.004;-75.010;2023-04-16T00:23:56;99526.99;;;22.09;52.20
77482;BME280;66582;43.004;-75.010;2023-04-16T00:26:22;99525.96;;;23.56;48.02
77482;BME280;66582;43.004;-75.010;2023-04-16T00:28:47;99533.68;;;21.68;52.26
77482;BME280;66582;43.004;-75.010;2023-04-16T00:31:13;99530.87;;;23.20;47.61
77482;BME280;66582;43.004;-75.010;2023-04-16T00:33:37;99530.50;;;23.06;47.10
77482;BME280;66582;43.004;-75.010;2023-04-16T00:36:03;99533.93;;;22.20;49.26
77482;BME280;66582;43.004;-75.010;2023-04-16T00:38:28;99539.63;;;21.88;50.26
77482;BME280;66582;43.004;-75.010;2023-04-16T00:40:53;99552.12;;;21.60;51.83
77482;BME280;66582;43.004;-75.010;2023-04-16T00:43:21;99561.11;;;23.69;46.50
77482;BME280;66582;43.004;-75.010;2023-04-16T00:45:43;99564.54;;;24.84;43.40
77482;BME280;66582;43.004;-75.010;2023-04-16T00:48:09;99575.40;;;24.99;42.63
77482;BME280;66582;43.004;-75.010;2023-04-16T00:50:35;99588.63;;;25.19;40.99
77482;BME280;66582;43.004;-75.010;2023-04-16T00:53:00;99592.97;;;24.94;40.45
77482;BME280;66582;43.004;-75.010;2023-04-16T00:55:25;99593.78;;;23.43;43.35
77482;BME280;66582;43.004;-75.010;2023-04-16T00:57:50;99594.57;;;23.05;46.19
77482;BME280;66582;43.004;-75.010;2023-04-16T01:00:16;99601.69;;;21.08;50.26
77482;BME280;66582;43.004;-75.010;2023-04-16T01:02:40;99601.49;;;22.80;46.35
77482;BME280;66582;43.004;-75.010;2023-04-16T01:05:07;99607.77;;;22.11;48.55
77482;BME280;66582;43.004;-75.010;2023-04-16T01:07:31;99607.89;;;23.29;46.22
77482;BME280;66582;43.004;-75.010;2023-04-16T01:09:56;99598.51;;;24.68;42.22
77482;BME280;66582;43.004;-75.010;2023-04-16T01:12:21;99595.10;;;25.31;41.63
77482;BME280;66582;43.004;-75.010;2023-04-16T01:14:47;99593.94;;;25.15;41.25
77482;BME280;66582;43.004;-75.010;2023-04-16T01:17:11;99588.56;;;25.73;39.86
77482;BME280;66582;43.004;-75.010;2023-04-16T01:19:37;99589.91;;;25.71;39.97
77482;BME280;66582;43.004;-75.010;2023-04-16T01:22:03;99593.57;;;26.15;38.78
77482;BME280;66582;43.004;-75.010;2023-04-16T01:24:27;99600.46;;;24.08;41.73
77482;BME280;66582;43.004;-75.010;2023-04-16T01:26:52;99600.81;;;25.98;39.46
77482;BME280;66582;43.004;-75.010;2023-04-16T01:29:18;99603.90;;;26.33;38.61
77482;BME280;66582;43.004;-75.010;2023-04-16T01:31:43;99608.57;;;26.60;37.83
77482;BME280;66582;43.004;-75.010;2023-04-16T01:34:08;99611.28;;;25.68;38.62
77482;BME280;66582;43.004;-75.010;2023-04-16T01:36:33;99608.97;;;26.23;37.94
77482;BME280;66582;43.004;-75.010;2023-04-16T01:38:59;99612.20;;;25.61;39.00
77482;BME280;66582;43.004;-75.010;2023-04-16T01:41:25;99612.09;;;23.84;42.53
77482;BME280;66582;43.004;-75.010;2023-04-16T01:43:49;99608.87;;;24.96;40.92
77482;BME280;66582;43.004;-75.010;2023-04-16T01:46:18;99615.76;;;22.96;45.80
77482;BME280;66582;43.004;-75.010;2023-04-16T01:48:39;99617.35;;;23.07;45.96
77482;BME280;66582;43.004;-75.010;2023-04-16T01:51:05;99618.41;;;23.63;44.47
77482;BME280;66582;43.004;-75.010;2023-04-16T01:53:30;99624.14;;;23.40;44.96
77482;BME280;66582;43.004;-75.010;2023-04-16T01:55:55;99627.23;;;23.89;44.28
77482;BME280;66582;43.004;-75.010;2023-04-16T01:58:21;99627.35;;;24.12;43.93
77482;BME280;66582;43.004;-75.010;2023-04-16T02:00:46;99623.15;;;23.41;45.31
77482;BME280;66582;43.004;-75.010;2023-04-16T02:03:11;99619.84;;;24.00;44.04
77482;BME280;66582;43.004;-75.010;2023-04-16T02:05:36;99621.73;;;21.22;50.11
77482;BME280;66582;43.004;-75.010;2023-04-16T02:08:01;99622.44;;;22.20;48.51
77482;BME280;66582;43.004;-75.010;2023-04-16T02:10:26;99620.45;;;21.54;50.91
77482;BME280;66582;43.004;-75.010;2023-04-16T02:12:52;99615.76;;;23.17;46.56
77482;BME280;66582;43.004;-75.010;2023-04-16T02:15:17;99612.38;;;23.85;44.24
77482;BME280;66582;43.004;-75.010;2023-04-16T02:17:43;99615.67;;;21.48;49.41
77482;BME280;66582;43.004;-75.010;2023-04-16T02:20:09;99621.47;;;20.99;52.20
77482;BME280;66582;43.004;-75.010;2023-04-16T02:22:33;99627.79;;;19.39;57.19
77482;BME280;66582;43.004;-75.010;2023-04-16T02:24:59;99621.76;;;20.12;56.58
77482;BME280;66582;43.004;-75.010;2023-04-16T02:27:23;99626.44;;;19.87;58.33
77482;BME280;66582;43.004;-75.010;2023-04-16T02:29:48;99626.50;;;17.54;68.01
77482;BME280;66582;43.004;-75.010;2023-04-16T02:32:13;99624.88;;;18.43;65.09
77482;BME280;66582;43.004;-75.010;2023-04-16T02:34:39;99623.71;;;20.52;58.39
77482;BME280;66582;43.004;-75.010;2023-04-16T02:37:04;99631.61;;;18.64;65.05
77482;BME280;66582;43.004;-75.010;2023-04-16T02:39:29;99635.86;;;17.57;70.21
77482;BME280;66582;43.004;-75.010;2023-04-16T02:41:54;99635.93;;;17.85;71.71
77482;BME280;66582;43.004;-75.010;2023-04-16T02:44:20;99634.96;;;17.05;76.17
77482;BME280;66582;43.004;-75.010;2023-04-16T02:46:45;99637.89;;;17.73;74.93
77482;BME280;66582;43.004;-75.010;2023-04-16T02:49:10;99636.11;;;17.48;77.69
77482;BME280;66582;43.004;-75.010;2023-04-16T02:51:36;99632.56;;;16.81;79.92
77482;BME280;66582;43.004;-75.010;2023-04-16T02:54:00;99624.36;;;18.07;74.64
77482;BME280;66582;43.004;-75.010;2023-04-16T02:56:26;99617.72;;;17.86;73.81
77482;BME280;66582;43.004;-75.010;2023-04-16T02:58:51;99616.97;;;17.26;77.32
77482;BME280;66582;43.004;-75.010;2023-04-16T03:01:16;99615.97;;;17.20;77.81
77482;BME280;66582;43.004;-75.010;2023-04-16T03:03:42;99616.73;;;16.63;80.27
77482;BME280;66582;43.004;-75.010;2023-04-16T03:06:06;99605.38;;;17.67;76.38
77482;BME280;66582;43.004;-75.010;2023-04-16T03:08:31;99597.17;;;17.19;78.51
77482;BME280;66582;43.004;-75.010;2023-04-16T03:10:58;99596.74;;;17.29;79.04
77482;BME280;66582;43.004;-75.010;2023-04-16T03:13:22;99596.69;;;17.83;77.11
77482;BME280;66582;43.004;-75.010;2023-04-16T03:15:48;99591.31;;;18.60;72.51
77482;BME280;66582;43.004;-75.010;2023-04-16T03:18:13;99587.89;;;20.25;64.90
77482;BME280;66582;43.004;-75.010;2023-04-16T03:20:38;99581.26;;;21.13;58.85
77482;BME280;66582;43.004;-75.010;2023-04-16T03:23:03;99583.65;;;18.35;68.14
77482;BME280;66582;43.004;-75.010;2023-04-16T03:25:31;99573.32;;;17.97;71.02
77482;BME280;66582;43.004;-75.010;2023-04-16T03:27:53;99568.66;;;17.62;75.79
77482;BME280;66582;43.004;-75.010;2023-04-16T03:30:19;99566.23;;;15.93;83.02
77482;BME280;66582;43.004;-75.010;2023-04-16T03:32:44;99557.86;;;17.15;79.20
77482;BME280;66582;43.004;-75.010;2023-04-16T03:35:10;99556.94;;;17.84;74.60
77482;BME280;66582;43.004;-75.010;2023-04-16T03:37:35;99554.55;;;18.30;72.56
77482;BME280;66582;43.004;-75.010;2023-04-16T03:39:59;99559.65;;;18.82;68.47
77482;BME280;66582;43.004;-75.010;2023-04-16T03:42:24;99558.56;;;17.42;75.06
77482;BME280;66582;43.004;-75.010;2023-04-16T03:44:50;99552.91;;;17.94;74.39
77482;BME280;66582;43.004;-75.010;2023-04-16T03:47:15;99551.63;;;16.29;82.08
77482;BME280;66582;43.004;-75.010;2023-04-16T03:49:41;99541.75;;;18.21;75.11
77482;BME280;66582;43.004;-75.010;2023-04-16T03:52:06;99537.26;;;18.59;70.41
77482;BME280;66582;43.004;-75.010;2023-04-16T03:54:31;99528.13;;;18.81;69.73
77482;BME280;66582;43.004;-75.010;2023-04-16T03:56:57;99520.34;;;17.73;73.70
77482;BME280;66582;43.004;-75.010;2023-04-16T03:59:21;99521.52;;;17.75;74.02
77482;BME280;66582;43.004;-75.010;2023-04-16T04:01:47;99515.99;;;16.70;79.25
77482;BME280;66582;43.004;-75.010;2023-04-16T04:04:12;99511.23;;;15.84;81.37
77482;BME280;66582;43.004;-75.010;2023-04-16T04:06:37;99505.77;;;16.23;80.84
77482;BME280;66582;43.004;-75.010;2023-04-16T04:09:04;99498.08;;;16.23;82.65
77482;BME280;66582;43.004;-75.010;2023-04-16T04:11:28;99490.95;;;16.26;82.74
77482;BME280;66582;43.004;-75.010;2023-04-16T04:13:53;99482.20;;;16.54;79.59
77482;BME280;66582;43.004;-75.010;2023-04-16T04:16:19;99483.34;;;16.28;82.87
77482;BME280;66582;43.004;-75.010;2023-04-16T04:18:44;99473.01;;;16.78;79.37
77482;BME280;66582;43.004;-75.010;2023-04-16T04:21:09;99465.48;;;17.36;76.78
77482;BME280;66582;43.004;-75.010;2023-04-16T04:23:34;99463.71;;;17.14;75.10
77482;BME280;66582;43.004;-75.010;2023-04-16T04:25:59;99461.49;;;16.99;76.24
77482;BME280;66582;43.004;-75.010;2023-04-16T04:28:25;99454.86;;;18.62;67.32
77482;BME280;66582;43.004;-75.010;2023-04-16T04:30:50;99455.53;;;19.25;63.95
77482;BME280;66582;43.004;-75.010;2023-04-16T04:33:16;99452.10;;;18.45;64.05
77482;BME280;66582;43.004;-75.010;2023-04-16T04:35:40;99443.04;;;19.59;60.68
77482;BME280;66582;43.004;-75.010;2023-04-16T04:38:05;99442.85;;;19.56;59.45
77482;BME280;66582;43.004;-75.010;2023-04-16T04:40:31;99435.89;;;20.19;57.44
77482;BME280;66582;43.004;-75.010;2023-04-16T04:42:56;99429.87;;;20.03;57.06
77482;BME280;66582;43.004;-75.010;2023-04-16T04:45:21;99429.93;;;18.05;62.30
77482;BME280;66582;43.004;-75.010;2023-04-16T04:47:46;99425.09;;;18.14;64.13
77482;BME280;66582;43.004;-75.010;2023-04-16T04:50:13;99418.78;;;18.86;61.79
77482;BME280;66582;43.004;-75.010;2023-04-16T04:52:36;99422.57;;;16.48;69.69
77482;BME280;66582;43.004;-75.010;2023-04-16T04:55:02;99420.71;;;18.01;66.24
77482;BME280;66582;43.004;-75.010;2023-04-16T04:57:27;99419.56;;;18.12;65.48
77482;BME280;66582;43.004;-75.010;2023-04-16T04:59:53;99416.65;;;18.51;61.94
77482;BME280;66582;43.004;-75.010;2023-04-16T05:02:18;99410.37;;;19.89;56.74
77482;BME280;66582;43.004;-75.010;2023-04-16T05:04:43;99416.75;;;17.91;62.49
77482;BME280;66582;43.004;-75.010;2023-04-16T05:07:08;99422.44;;;16.44;68.97
77482;BME280;66582;43.004;-75.010;2023-04-16T05:09:33;99427.39;;;18.15;63.83
77482;BME280;66582;43.004;-75.010;2023-04-16T05:11:58;99432.58;;;19.06;59.85
77482;BME280;66582;43.004;-75.010;2023-04-16T05:14:23;99434.63;;;19.40;56.63
77482;BME280;66582;43.004;-75.010;2023-04-16T05:16:49;99446.48;;;19.83;55.06
77482;BME280;66582;43.004;-75.010;2023-04-16T05:19:15;99458.60;;;19.59;54.43
77482;BME280;66582;43.004;-75.010;2023-04-16T05:21:39;99474.50;;;18.53;58.30
77482;BME280;66582;43.004;-75.010;2023-04-16T05:24:06;99486.64;;;17.79;62.84
77482;BME280;66582;43.004;-75.010;2023-04-16T05:26:29;99498.23;;;18.78;59.56
77482;BME280;66582;43.004;-75.010;2023-04-16T05:28:54;99509.05;;;19.13;57.37
77482;BME280;66582;43.004;-75.010;2023-04-16T05:31:20;99521.79;;;18.78;57.43
77482;BME280;66582;43.004;-75.010;2023-04-16T05:33:46;99527.28;;;18.18;59.24
77482;BME280;66582;43.004;-75.010;2023-04-16T05:36:10;99549.69;;;15.53;70.68
77482;BME280;66582;43.004;-75.010;2023-04-16T05:38:36;99567.85;;;15.34;76.45
77482;BME280;66582;43.004;-75.010;2023-04-16T05:41:01;99571.83;;;16.47;70.55
77482;BME280;66582;43.004;-75.010;2023-04-16T05:43:27;99586.84;;;15.82;71.66
77482;BME280;66582;43.004;-75.010;2023-04-16T05:45:51;99602.19;;;15.66;75.62
77482;BME280;66582;43.004;-75.010;2023-04-16T05:48:16;99603.83;;;15.83;73.28
77482;BME280;66582;43.004;-75.010;2023-04-16T05:50:41;99600.69;;;17.49;65.95
77482;BME280;66582;43.004;-75.010;2023-04-16T05:53:08;99605.80;;;18.84;60.69
77482;BME280;66582;43.004;-75.010;2023-04-16T05:55:32;99617.33;;;17.77;60.74
77482;BME280;66582;43.004;-75.010;2023-04-16T05:57:57;99643.27;;;14.12;76.07
77482;BME280;66582;43.004;-75.010;2023-04-16T06:00:22;99652.20;;;14.47;78.52
77482;BME280;66582;43.004;-75.010;2023-04-16T06:02:47;99658.51;;;15.40;75.43
77482;BME280;66582;43.004;-75.010;2023-04-16T06:05:13;99662.67;;;15.95;73.79
77482;BME280;66582;43.004;-75.010;2023-04-16T06:07:38;99660.55;;;15.72;74.33
77482;BME280;66582;43.004;-75.010;2023-04-16T06:10:04;99651.41;;;16.00;73.09
77482;BME280;66582;43.004;-75.010;2023-04-16T06:12:29;99651.30;;;15.37;76.15
77482;BME280;66582;43.004;-75.010;2023-04-16T06:14:54;99654.23;;;16.45;72.55
77482;BME280;66582;43.004;-75.010;2023-04-16T06:17:19;99662.05;;;16.62;70.64
77482;BME280;66582;43.004;-75.010;2023-04-16T06:19:44;99666.15;;;16.49;69.19
77482;BME280;66582;43.004;-75.010;2023-04-16T06:22:09;99662.96;;;17.99;63.82
77482;BME280;66582;43.004;-75.010;2023-04-16T06:24:34;99661.53;;;17.30;64.50
77482;BME280;66582;43.004;-75.010;2023-04-16T06:27:00;99659.71;;;18.91;59.11
77482;BME280;66582;43.004;-75.010;2023-04-16T06:29:25;99666.35;;;18.94;57.80
77482;BME280;66582;43.004;-75.010;2023-04-16T06:31:50;99680.69;;;17.69;59.15
77482;BME280;66582;43.004;-75.010;2023-04-16T06:34:15;99692.31;;;18.48;58.62
77482;BME280;66582;43.004;-75.010;2023-04-16T06:36:41;99697.23;;;18.68;57.71
77482;BME280;66582;43.004;-75.010;2023-04-16T06:39:05;99701.99;;;17.47;61.60
77482;BME280;66582;43.004;-75.010;2023-04-16T06:41:31;99709.12;;;14.84;73.23
77482;BME280;66582;43.004;-75.010;2023-04-16T06:43:57;99715.04;;;13.72;86.38
77482;BME280;66582;43.004;-75.010;2023-04-16T06:46:23;99718.02;;;14.64;82.95
77482;BME280;66582;43.004;-75.010;2023-04-16T06:48:49;99717.46;;;16.24;74.05
77482;BME280;66582;43.004;-75.010;2023-04-16T06:51:14;99720.06;;;16.33;74.24
77482;BME280;66582;43.004;-75.010;2023-04-16T06:53:40;99720.43;;;15.09;79.30
77482;BME280;66582;43.004;-75.010;2023-04-16T06:56:07;99726.44;;;13.50;86.12
77482;BME280;66582;43.004;-75.010;2023-04-16T06:58:31;99728.45;;;13.94;86.55
77482;BME280;66582;43.004;-75.010;2023-04-16T07:00:56;99724.31;;;14.32;87.37
77482;BME280;66582;43.004;-75.010;2023-04-16T07:03:21;99726.12;;;15.37;84.52
77482;BME280;66582;43.004;-75.010;2023-04-16T07:05:46;99739.71;;;14.33;84.78
77482;BME280;66582;43.004;-75.010;2023-04-16T07:08:11;99745.91;;;14.72;84.57
77482;BME280;66582;43.004;-75.010;2023-04-16T07:10:37;99743.34;;;16.23;77.05
77482;BME280;66582;43.004;-75.010;2023-04-16T07:13:02;99734.78;;;16.35;76.59
77482;BME280;66582;43.004;-75.010;2023-04-16T07:15:27;99718.68;;;17.70;71.63
77482;BME280;66582;43.004;-75.010;2023-04-16T07:17:52;99717.04;;;17.00;74.20
77482;BME280;66582;43.004;-75.010;2023-04-16T07:20:18;99717.17;;;17.54;70.83
77482;BME280;66582;43.004;-75.010;2023-04-16T07:22:43;99720.76;;;17.85;68.47
77482;BME280;66582;43.004;-75.010;2023-04-16T07:25:08;99720.79;;;16.30;75.05
77482;BME280;66582;43.004;-75.010;2023-04-16T07:27:33;99706.46;;;16.99;72.31
77482;BME280;66582;43.004;-75.010;2023-04-16T07:29:59;99707.03;;;15.78;76.81
77482;BME280;66582;43.004;-75.010;2023-04-16T07:32:23;99698.14;;;17.07;72.98
77482;BME280;66582;43.004;-75.010;2023-04-16T07:34:49;99701.87;;;17.36;70.71
77482;BME280;66582;43.004;-75.010;2023-04-16T07:37:14;99700.35;;;17.91;67.85
77482;BME280;66582;43.004;-75.010;2023-04-16T07:39:39;99704.82;;;17.55;66.81
77482;BME280;66582;43.004;-75.010;2023-04-16T07:42:04;99702.51;;;18.10;64.86
77482;BME280;66582;43.004;-75.010;2023-04-16T07:44:29;99696.57;;;18.92;61.81
77482;BME280;66582;43.004;-75.010;2023-04-16T07:46:55;99692.00;;;19.98;58.71
77482;BME280;66582;43.004;-75.010;2023-04-16T07:49:21;99680.59;;;19.24;58.94
77482;BME280;66582;43.004;-75.010;2023-04-16T07:51:45;99670.92;;;18.74;59.46
77482;BME280;66582;43.004;-75.010;2023-04-16T07:54:10;99665.80;;;17.58;62.08
77482;BME280;66582;43.004;-75.010;2023-04-16T07:56:35;99663.28;;;17.39;67.06
77482;BME280;66582;43.004;-75.010;2023-04-16T07:59:01;99657.23;;;17.50;63.86
77482;BME280;66582;43.004;-75.010;2023-04-16T08:01:26;99648.84;;;18.47;62.22
77482;BME280;66582;43.004;-75.010;2023-04-16T08:03:51;99643.23;;;18.34;61.81
77482;BME280;66582;43.004;-75.010;2023-04-16T08:06:16;99640.46;;;18.54;59.67
77482;BME280;66582;43.004;-75.010;2023-04-16T08:08:41;99643.52;;;17.80;64.00
77482;BME280;66582;43.004;-75.010;2023-04-16T08:11:06;99646.34;;;16.08;72.14
77482;BME280;66582;43.004;-75.010;2023-04-16T08:13:32;99634.62;;;16.91;70.95
77482;BME280;66582;43.004;-75.010;2023-04-16T08:15:57;99624.69;;;16.50;72.06
77482;BME280;66582;43.004;-75.010;2023-04-16T08:18:22;99614.99;;;17.63;67.19
77482;BME280;66582;43.004;-75.010;2023-04-16T08:20:47;99609.20;;;18.11;62.77
77482;BME280;66582;43.004;-75.010;2023-04-16T08:23:13;99609.01;;;18.35;59.71
77482;BME280;66582;43.004;-75.010;2023-04-16T08:25:38;99604.79;;;19.49;55.91
77482;BME280;66582;43.004;-75.010;2023-04-16T08:28:03;99604.65;;;19.24;54.77
77482;BME280;66582;43.004;-75.010;2023-04-16T08:30:28;99605.59;;;18.09;58.89
77482;BME280;66582;43.004;-75.010;2023-04-16T08:32:53;99604.63;;;17.41;61.75
77482;BME280;66582;43.004;-75.010;2023-04-16T08:35:20;99612.46;;;15.00;74.36
77482;BME280;66582;43.004;-75.010;2023-04-16T08:37:44;99619.44;;;14.39;81.42
77482;BME280;66582;43.004;-75.010;2023-04-16T08:40:10;99619.38;;;15.33;77.70
77482;BME280;66582;43.004;-75.010;2023-04-16T08:42:38;99617.93;;;15.32;77.27
77482;BME280;66582;43.004;-75.010;2023-04-16T08:45:06;99619.20;;;14.05;84.28
77482;BME280;66582;43.004;-75.010;2023-04-16T08:47:25;99619.31;;;14.23;81.98
77482;BME280;66582;43.004;-75.010;2023-04-16T08:49:50;99622.92;;;15.19;78.93
77482;BME280;66582;43.004;-75.010;2023-04-16T08:52:18;99612.94;;;15.87;75.69
77482;BME280;66582;43.004;-75.010;2023-04-16T08:54:45;99600.30;;;16.22;71.67
77482;BME280;66582;43.004;-75.010;2023-04-16T08:57:08;99600.56;;;15.49;72.53
77482;BME280;66582;43.004;-75.010;2023-04-16T08:59:31;99605.91;;;12.54;87.69
77482;BME280;66582;43.004;-75.010;2023-04-16T09:01:57;99602.34;;;12.05;95.07
77482;BME280;66582;43.004;-75.010;2023-04-16T09:04:22;99587.43;;;13.87;87.32
77482;BME280;66582;43.004;-75.010;2023-04-16T09:06:48;99589.94;;;13.77;84.47
77482;BME280;66582;43.004;-75.010;2023-04-16T09:09:12;99588.64;;;13.73;87.10
77482;BME280;66582;43.004;-75.010;2023-04-16T09:11:37;99587.71;;;12.79;93.35
77482;BME280;66582;43.004;-75.010;2023-04-16T09:14:02;99587.95;;;13.18;94.90
77482;BME280;66582;43.004;-75.010;2023-04-16T09:16:28;99577.74;;;14.66;91.48
77482;BME280;66582;43.004;-75.010;2023-04-16T09:18:52;99573.87;;;15.99;81.63
77482;BME280;66582;43.004;-75.010;2023-04-16T09:21:19;99569.38;;;15.92;72.97
77482;BME280;66582;43.004;-75.010;2023-04-16T09:23:43;99564.45;;;16.46;69.80
77482;BME280;66582;43.004;-75.010;2023-04-16T09:26:08;99556.09;;;17.67;64.22
77482;BME280;66582;43.004;-75.010;2023-04-16T09:28:39;99564.47;;;15.05;72.40
77482;BME280;66582;43.004;-75.010;2023-04-16T09:31:06;99568.92;;;14.16;80.81
77482;BME280;66582;43.004;-75.010;2023-04-16T09:33:23;99577.40;;;12.38;90.67
77482;BME280;66582;43.004;-75.010;2023-04-16T09:35:49;99571.06;;;13.08;91.91
77482;BME280;66582;43.004;-75.010;2023-04-16T09:38:14;99567.46;;;13.36;87.58
77482;BME280;66582;43.004;-75.010;2023-04-16T09:40:39;99564.45;;;14.60;82.76
77482;BME280;66582;43.004;-75.010;2023-04-16T09:43:09;99564.77;;;14.47;84.38
77482;BME280;66582;43.004;-75.010;2023-04-16T09:45:31;99566.79;;;14.54;83.03
77482;BME280;66582;43.004;-75.010;2023-04-16T09:48:02;99569.86;;;15.31;78.21
77482;BME280;66582;43.004;-75.010;2023-04-16T09:50:20;99566.06;;;15.95;73.65
77482;BME280;66582;43.004;-75.010;2023-04-16T09:52:48;99569.82;;;15.82;71.84
77482;BME280;66582;43.004;-75.010;2023-04-16T09:55:10;99561.72;;;17.04;66.19
77482;BME280;66582;43.004;-75.010;2023-04-16T09:57:37;99568.74;;;15.17;70.26
77482;BME280;66582;43.004;-75.010;2023-04-16T10:00:02;99575.77;;;13.63;83.74
77482;BME280;66582;43.004;-75.010;2023-04-16T10:02:26;99572.63;;;13.86;84.00
77482;BME280;66582;43.004;-75.010;2023-04-16T10:04:53;99567.75;;;13.10;86.86
77482;BME280;66582;43.004;-75.010;2023-04-16T10:07:18;99562.36;;;13.56;84.78
77482;BME280;66582;43.004;-75.010;2023-04-16T10:09:42;99559.07;;;13.18;86.81
77482;BME280;66582;43.004;-75.010;2023-04-16T10:12:07;99553.81;;;13.74;84.85
77482;BME280;66582;43.004;-75.010;2023-04-16T10:14:32;99544.17;;;14.25;81.12
77482;BME280;66582;43.004;-75.010;2023-04-16T10:16:57;99538.81;;;14.06;81.06
77482;BME280;66582;43.004;-75.010;2023-04-16T10:19:22;99532.24;;;13.71;83.84
77482;BME280;66582;43.004;-75.010;2023-04-16T10:21:48;99527.52;;;14.02;84.26
77482;BME280;66582;43.004;-75.010;2023-04-16T10:24:13;99526.45;;;14.11;82.51
77482;BME280;66582;43.004;-75.010;2023-04-16T10:26:38;99521.56;;;15.48;75.17
77482;BME280;66582;43.004;-75.010;2023-04-16T10:29:05;99518.91;;;16.61;68.55
77482;BME280;66582;43.004;-75.010;2023-04-16T10:31:29;99520.10;;;17.12;65.16
77482;BME280;66582;43.004;-75.010;2023-04-16T10:33:54;99524.86;;;15.89;68.03
77482;BME280;66582;43.004;-75.010;2023-04-16T10:36:24;99529.51;;;14.57;77.05
77482;BME280;66582;43.004;-75.010;2023-04-16T10:38:45;99523.94;;;13.61;85.00
77482;BME280;66582;43.004;-75.010;2023-04-16T10:41:10;99526.81;;;12.84;88.58
77482;BME280;66582;43.004;-75.010;2023-04-16T10:43:39;99535.09;;;14.04;84.86
77482;BME280;66582;43.004;-75.010;2023-04-16T10:48:25;99552.00;;;12.55;93.26
77482;BME280;66582;43.004;-75.010;2023-04-16T10:50:56;99555.80;;;12.29;96.97
77482;BME280;66582;43.004;-75.010;2023-04-16T10:53:19;99556.65;;;13.65;90.07
77482;BME280;66582;43.004;-75.010;2023-04-16T10:55:41;99564.02;;;13.72;87.14
77482;BME280;66582;43.004;-75.010;2023-04-16T11:02:57;99585.95;;;13.97;86.94
77482;BME280;66582;43.004;-75.010;2023-04-16T11:05:22;99594.22;;;13.27;90.05
77482;BME280;66582;43.004;-75.010;2023-04-16T11:07:47;99593.30;;;14.74;84.34
77482;BME280;66582;43.004;-75.010;2023-04-16T11:10:13;99599.90;;;14.03;84.70
77482;BME280;66582;43.004;-75.010;2023-04-16T11:12:39;99598.49;;;15.78;78.22
77482;BME280;66582;43.004;-75.010;2023-04-16T11:15:03;99598.54;;;16.64;74.82
77482;BME280;66582;43.004;-75.010;2023-04-16T11:17:32;99605.85;;;14.87;79.80
77482;BME280;66582;43.004;-75.010;2023-04-16T11:19:53;99607.87;;;14.94;80.23
77482;BME280;66582;43.004;-75.010;2023-04-16T11:22:18;99606.54;;;14.58;81.40
77482;BME280;66582;43.004;-75.010;2023-04-16T11:24:45;99606.05;;;14.98;81.48
77482;BME280;66582;43.004;-75.010;2023-04-16T11:27:09;99603.34;;;15.57;79.17
77482;BME280;66582;43.004;-75.010;2023-04-16T11:29:34;99607.56;;;14.22;81.98
77482;BME280;66582;43.004;-75.010;2023-04-16T11:31:59;99606.71;;;16.47;75.83
77482;BME280;66582;43.004;-75.010;2023-04-16T11:34:24;99612.52;;;17.91;69.07
77482;BME280;66582;43.004;-75.010;2023-04-16T11:36:51;99619.58;;;16.56;72.56
77482;BME280;66582;43.004;-75.010;2023-04-16T11:39:15;99616.45;;;16.09;74.48
77482;BME280;66582;43.004;-75.010;2023-04-16T11:41:42;99608.44;;;17.87;67.82
77482;BME280;66582;43.004;-75.010;2023-04-16T11:44:16;99609.70;;;19.25;62.76
77482;BME280;66582;43.004;-75.010;2023-04-16T11:46:39;99601.66;;;20.68;57.78
77482;BME280;66582;43.004;-75.010;2023-04-16T11:48:56;99607.07;;;21.09;54.79
77482;BME280;66582;43.004;-75.010;2023-04-16T11:51:20;99607.00;;;21.36;53.50
77482;BME280;66582;43.004;-75.010;2023-04-16T11:53:49;99608.22;;;21.57;54.77
77482;BME280;66582;43.004;-75.010;2023-04-16T11:56:11;99613.37;;;21.25;57.46
77482;BME280;66582;43.004;-75.010;2023-04-16T11:58:36;99614.31;;;21.15;55.52
77482;BME280;66582;43.004;-75.010;2023-04-16T12:01:02;99615.73;;;22.66;52.76
77482;BME280;66582;43.004;-75.010;2023-04-16T12:03:36;99615.82;;;22.54;51.80
77482;BME280;66582;43.004;-75.010;2023-04-16T12:05:51;99618.80;;;23.52;50.13
77482;BME280;66582;43.004;-75.010;2023-04-16T12:13:11;99613.01;;;22.84;50.98
77482;BME280;66582;43.004;-75.010;2023-04-16T12:15:44;99611.33;;;23.41;49.93
77482;BME280;66582;43.004;-75.010;2023-04-16T12:18:06;99605.68;;;23.97;49.11
77482;BME280;66582;43.004;-75.010;2023-04-16T12:20:23;99613.59;;;22.28;51.71
77482;BME280;66582;43.004;-75.010;2023-04-16T12:22:48;99612.60;;;24.08;50.16
77482;BME280;66582;43.004;-75.010;2023-04-16T12:25:15;99611.63;;;24.88;47.23
77482;BME280;66582;43.004;-75.010;2023-04-16T12:27:47;99616.20;;;23.72;49.07
77482;BME280;66582;43.004;-75.010;2023-04-16T12:30:05;99611.50;;;24.58;47.59
77482;BME280;66582;43.004;-75.010;2023-04-16T12:32:29;99612.90;;;24.53;48.61
77482;BME280;66582;43.004;-75.010;2023-04-16T12:34:54;99618.55;;;24.09;49.22
77482;BME280;66582;43.004;-75.010;2023-04-16T12:37:19;99622.04;;;24.43;48.16
77482;BME280;66582;43.004;-75.010;2023-04-16T12:39:47;99624.76;;;24.69;46.71
77482;BME280;66582;43.004;-75.010;2023-04-16T12:42:10;99629.45;;;24.42;46.86